createdAt,value
2018-01-30T00:00:01.526Z,8.96
2018-01-30T00:00:05.421Z,8.93
2018-01-30T00:00:09.493Z,8.94
2018-01-30T00:00:13.839Z,8.93
2018-01-30T00:00:17.872Z,8.98
2018-01-30T00:00:22.079Z,8.94
2018-01-30T00:00:26.081Z,8.94
2018-01-30T00:00:29.980Z,9.01
2018-01-30T00:00:33.764Z,8.94
2018-01-30T00:00:37.761Z,8.97
2018-01-30T00:00:41.658Z,8.89
2018-01-30T00:00:45.552Z,8.91
2018-01-30T00:00:49.550Z,8.91
2018-01-30T00:00:53.238Z,8.93
2018-01-30T00:00:57.174Z,8.94
2018-01-30T00:01:01.064Z,8.91
2018-01-30T00:01:05.266Z,9.01
2018-01-30T00:01:09.054Z,8.96
2018-01-30T00:01:13.053Z,8.94
2018-01-30T00:01:16.845Z,8.98
2018-01-30T00:01:20.741Z,9
2018-01-30T00:01:24.846Z,8.91
2018-01-30T00:01:28.748Z,8.88
2018-01-30T00:01:32.751Z,8.91
2018-01-30T00:01:36.539Z,9
2018-01-30T00:01:40.328Z,8.89
2018-01-30T00:01:44.328Z,8.93
2018-01-30T00:01:48.437Z,8.94
2018-01-30T00:01:52.536Z,8.91
2018-01-30T00:01:56.541Z,9
2018-01-30T00:02:00.644Z,8.98
2018-01-30T00:02:04.756Z,8.89
2018-01-30T00:02:08.757Z,8.89
2018-01-30T00:02:12.438Z,8.89
2018-01-30T00:02:16.445Z,8.86
2018-01-30T00:02:20.347Z,8.89
2018-01-30T00:02:24.246Z,8.93
2018-01-30T00:02:28.348Z,9
2018-01-30T00:02:32.450Z,8.94
2018-01-30T00:02:36.339Z,8.93
2018-01-30T00:02:40.024Z,9
2018-01-30T00:02:44.136Z,8.88
2018-01-30T00:02:47.958Z,8.88
2018-01-30T00:02:51.927Z,8.89
2018-01-30T00:02:55.924Z,8.88
2018-01-30T00:02:59.818Z,8.91
2018-01-30T00:03:03.815Z,8.98
2018-01-30T00:03:07.814Z,9
2018-01-30T00:03:11.704Z,8.89
2018-01-30T00:03:15.491Z,8.91
2018-01-30T00:03:19.279Z,8.83
2018-01-30T00:03:23.171Z,8.88
2018-01-30T00:03:27.179Z,9
2018-01-30T00:03:30.968Z,8.96
2018-01-30T00:03:34.963Z,8.98
2018-01-30T00:03:38.645Z,9.01
2018-01-30T00:03:42.437Z,8.97
2018-01-30T00:03:46.118Z,8.88
2018-01-30T00:03:50.125Z,8.98
2018-01-30T00:03:54.228Z,8.97
2018-01-30T00:03:58.018Z,9.01
2018-01-30T00:04:02.119Z,8.96
2018-01-30T00:04:05.909Z,9
2018-01-30T00:04:09.803Z,8.91
2018-01-30T00:04:13.812Z,8.96
2018-01-30T00:04:17.820Z,8.91
2018-01-30T00:04:21.509Z,8.89
2018-01-30T00:04:25.398Z,8.97
2018-01-30T00:04:29.294Z,8.97
2018-01-30T00:04:33.406Z,8.94
2018-01-30T00:04:37.404Z,8.98
2018-01-30T00:04:41.093Z,8.88
2018-01-30T00:04:44.983Z,8.89
2018-01-30T00:04:49.084Z,8.91
2018-01-30T00:04:52.871Z,8.91
2018-01-30T00:04:56.765Z,8.94
2018-01-30T00:05:00.769Z,9.03
2018-01-30T00:05:04.861Z,8.91
2018-01-30T00:05:08.654Z,8.94
2018-01-30T00:05:12.655Z,8.96
2018-01-30T00:05:16.666Z,8.89
2018-01-30T00:05:20.668Z,8.91
2018-01-30T00:05:24.671Z,8.93
2018-01-30T00:05:28.784Z,8.85
2018-01-30T00:05:32.469Z,8.91
2018-01-30T00:05:36.253Z,9.01
2018-01-30T00:05:40.261Z,8.93
2018-01-30T00:05:43.945Z,8.91
2018-01-30T00:05:47.736Z,8.89
2018-01-30T00:05:51.943Z,9.01
2018-01-30T00:05:55.840Z,8.91
2018-01-30T00:05:59.943Z,8.91
2018-01-30T00:06:03.946Z,8.91
2018-01-30T00:06:07.950Z,8.93
2018-01-30T00:06:11.843Z,8.93
2018-01-30T00:06:15.741Z,8.97
2018-01-30T00:06:19.635Z,8.93
2018-01-30T00:06:23.532Z,8.93
2018-01-30T00:06:27.218Z,8.91
2018-01-30T00:06:31.222Z,8.93
2018-01-30T00:06:35.117Z,8.93
2018-01-30T00:06:39.229Z,8.96
2018-01-30T00:06:42.912Z,8.91
2018-01-30T00:06:47.014Z,8.98
2018-01-30T00:06:51.125Z,8.88
2018-01-30T00:06:55.020Z,8.94
2018-01-30T00:06:59.015Z,8.96
2018-01-30T00:07:03.121Z,8.88
2018-01-30T00:07:06.917Z,8.91
2018-01-30T00:07:10.920Z,9
2018-01-30T00:07:14.716Z,8.88
2018-01-30T00:07:18.614Z,8.98
2018-01-30T00:07:22.733Z,8.93
2018-01-30T00:07:26.839Z,8.91
2018-01-30T00:07:30.740Z,9
2018-01-30T00:07:34.847Z,8.94
2018-01-30T00:07:38.737Z,8.96
2018-01-30T00:07:42.843Z,8.91
2018-01-30T00:07:46.633Z,8.91
2018-01-30T00:07:50.745Z,8.88
2018-01-30T00:07:54.747Z,8.93
2018-01-30T00:07:58.437Z,8.93
2018-01-30T00:08:02.229Z,8.89
2018-01-30T00:08:06.236Z,8.94
2018-01-30T00:08:10.024Z,8.97
2018-01-30T00:08:13.808Z,8.94
2018-01-30T00:08:17.596Z,8.91
2018-01-30T00:08:21.594Z,8.93
2018-01-30T00:08:25.382Z,8.89
2018-01-30T00:08:29.528Z,8.86
2018-01-30T00:08:33.737Z,8.96
2018-01-30T00:08:37.735Z,8.91
2018-01-30T00:08:41.422Z,9
2018-01-30T00:08:45.312Z,8.89
2018-01-30T00:08:49.522Z,8.94
2018-01-30T00:08:53.519Z,8.93
2018-01-30T00:08:57.421Z,8.91
2018-01-30T00:09:01.417Z,8.93
2018-01-30T00:09:05.561Z,8.93
2018-01-30T00:09:09.768Z,8.93
2018-01-30T00:09:13.873Z,8.93
2018-01-30T00:09:17.880Z,8.93
2018-01-30T00:09:21.989Z,8.93
2018-01-30T00:09:25.671Z,8.94
2018-01-30T00:09:29.565Z,8.88
2018-01-30T00:09:33.566Z,8.93
2018-01-30T00:09:37.352Z,8.93
2018-01-30T00:09:41.147Z,8.94
2018-01-30T00:09:44.942Z,8.93
2018-01-30T00:09:48.835Z,8.93
2018-01-30T00:09:52.940Z,8.89
2018-01-30T00:09:56.941Z,8.89
2018-01-30T00:10:00.833Z,9
2018-01-30T00:10:04.726Z,8.93
2018-01-30T00:10:08.705Z,8.96
2018-01-30T00:10:12.702Z,8.86
2018-01-30T00:10:16.496Z,8.94
2018-01-30T00:10:20.761Z,8.88
2018-01-30T00:10:24.986Z,8.91
2018-01-30T00:10:28.842Z,8.96
2018-01-30T00:10:32.629Z,8.91
2018-01-30T00:10:36.318Z,8.88
2018-01-30T00:10:40.218Z,8.91
2018-01-30T00:10:44.111Z,8.86
2018-01-30T00:10:47.787Z,8.91
2018-01-30T00:10:51.778Z,8.94
2018-01-30T00:10:55.687Z,9
2018-01-30T00:10:59.586Z,8.89
2018-01-30T00:11:03.384Z,8.88
2018-01-30T00:11:07.064Z,8.89
2018-01-30T00:11:11.060Z,8.94
2018-01-30T00:11:14.853Z,8.89
2018-01-30T00:11:19.059Z,8.94
2018-01-30T00:11:23.159Z,8.94
2018-01-30T00:11:27.051Z,8.94
2018-01-30T00:11:30.941Z,8.93
2018-01-30T00:11:34.728Z,8.93
2018-01-30T00:11:38.616Z,8.88
2018-01-30T00:11:42.616Z,8.94
2018-01-30T00:11:46.619Z,8.98
2018-01-30T00:11:50.621Z,8.94
2018-01-30T00:11:54.514Z,8.97
2018-01-30T00:11:58.510Z,8.88
2018-01-30T00:12:02.714Z,8.93
2018-01-30T00:12:06.816Z,8.96
2018-01-30T00:12:10.600Z,8.91
2018-01-30T00:12:14.287Z,8.98
2018-01-30T00:12:18.180Z,8.91
2018-01-30T00:12:21.967Z,8.94
2018-01-30T00:12:25.862Z,8.96
2018-01-30T00:12:29.755Z,8.96
2018-01-30T00:12:33.757Z,8.93
2018-01-30T00:12:37.647Z,8.94
2018-01-30T00:12:41.328Z,8.88
2018-01-30T00:12:45.117Z,9
2018-01-30T00:12:48.908Z,8.94
2018-01-30T00:12:52.808Z,8.91
2018-01-30T00:12:56.495Z,8.91
2018-01-30T00:13:00.388Z,8.93
2018-01-30T00:13:04.388Z,8.93
2018-01-30T00:13:08.490Z,8.94
2018-01-30T00:13:12.388Z,8.93
2018-01-30T00:13:16.385Z,9
2018-01-30T00:13:20.173Z,8.96
2018-01-30T00:13:24.272Z,8.91
2018-01-30T00:13:28.174Z,8.93
2018-01-30T00:13:31.963Z,8.88
2018-01-30T00:13:35.853Z,8.89
2018-01-30T00:13:39.968Z,8.96
2018-01-30T00:13:43.755Z,8.94
2018-01-30T00:13:47.756Z,8.96
2018-01-30T00:13:51.856Z,8.94
2018-01-30T00:13:55.858Z,8.93
2018-01-30T00:13:59.859Z,8.94
2018-01-30T00:14:03.976Z,8.91
2018-01-30T00:14:07.872Z,8.94
2018-01-30T00:14:11.987Z,8.89
2018-01-30T00:14:15.884Z,8.93
2018-01-30T00:14:19.883Z,8.96
2018-01-30T00:14:23.882Z,8.89
2018-01-30T00:14:27.670Z,8.86
2018-01-30T00:14:31.357Z,8.93
2018-01-30T00:14:35.148Z,8.93
2018-01-30T00:14:39.042Z,8.89
2018-01-30T00:14:42.834Z,8.91
2018-01-30T00:14:46.722Z,8.94
2018-01-30T00:14:50.715Z,8.88
2018-01-30T00:14:54.615Z,8.91
2018-01-30T00:14:58.619Z,8.97
2018-01-30T00:15:02.718Z,8.96
2018-01-30T00:15:06.506Z,8.94
2018-01-30T00:15:10.288Z,9.06
2018-01-30T00:15:14.178Z,8.98
2018-01-30T00:15:18.077Z,8.91
2018-01-30T00:15:21.969Z,8.96
2018-01-30T00:15:25.971Z,8.91
2018-01-30T00:15:29.869Z,8.94
2018-01-30T00:15:33.661Z,8.93
2018-01-30T00:15:37.451Z,8.93
2018-01-30T00:15:41.240Z,8.96
2018-01-30T00:15:45.245Z,8.93
2018-01-30T00:15:49.250Z,8.97
2018-01-30T00:15:53.253Z,8.88
2018-01-30T00:15:57.141Z,8.93
2018-01-30T00:16:01.150Z,8.94
2018-01-30T00:16:04.832Z,8.91
2018-01-30T00:16:08.729Z,8.96
2018-01-30T00:16:12.733Z,8.94
2018-01-30T00:16:16.661Z,8.98
2018-01-30T00:16:20.550Z,8.89
2018-01-30T00:16:24.442Z,8.91
2018-01-30T00:16:28.442Z,9.03
2018-01-30T00:16:32.229Z,8.88
2018-01-30T00:16:36.020Z,8.91
2018-01-30T00:16:40.019Z,8.93
2018-01-30T00:16:44.024Z,9.01
2018-01-30T00:16:47.920Z,8.91
2018-01-30T00:16:52.038Z,8.91
2018-01-30T00:16:55.940Z,8.98
2018-01-30T00:16:59.941Z,9
2018-01-30T00:17:03.734Z,8.89
2018-01-30T00:17:07.632Z,8.93
2018-01-30T00:17:11.522Z,8.94
2018-01-30T00:17:15.519Z,8.93
2018-01-30T00:17:19.308Z,8.96
2018-01-30T00:17:22.988Z,8.93
2018-01-30T00:17:26.774Z,8.96
2018-01-30T00:17:30.770Z,9.06
2018-01-30T00:17:34.660Z,8.97
2018-01-30T00:17:38.341Z,8.98
2018-01-30T00:17:42.126Z,8.91
2018-01-30T00:17:46.446Z,9.01
2018-01-30T00:17:50.552Z,8.94
2018-01-30T00:17:54.549Z,8.98
2018-01-30T00:17:58.341Z,8.96
2018-01-30T00:18:02.434Z,8.94
2018-01-30T00:18:06.542Z,8.88
2018-01-30T00:18:10.434Z,8.97
2018-01-30T00:18:14.222Z,8.93
2018-01-30T00:18:18.009Z,8.96
2018-01-30T00:18:21.898Z,8.91
2018-01-30T00:18:25.690Z,9.03
2018-01-30T00:18:29.592Z,9.03
2018-01-30T00:18:33.485Z,8.94
2018-01-30T00:18:37.333Z,8.94
2018-01-30T00:18:41.068Z,8.96
2018-01-30T00:18:45.166Z,9.04
2018-01-30T00:18:49.057Z,8.96
2018-01-30T00:18:53.217Z,8.96
2018-01-30T00:18:57.118Z,8.93
2018-01-30T00:19:01.017Z,9.06
2018-01-30T00:19:05.311Z,9.04
2018-01-30T00:19:09.154Z,9.08
2018-01-30T00:19:12.945Z,9.04
2018-01-30T00:19:16.842Z,8.93
2018-01-30T00:19:20.943Z,8.97
2018-01-30T00:19:24.941Z,8.98
2018-01-30T00:19:29.048Z,9.04
2018-01-30T00:19:33.050Z,8.98
2018-01-30T00:19:37.058Z,9.04
2018-01-30T00:19:40.847Z,8.98
2018-01-30T00:19:44.748Z,8.93
2018-01-30T00:19:48.750Z,9.03
2018-01-30T00:19:52.745Z,9.08
2018-01-30T00:19:56.747Z,9.01
2018-01-30T00:20:00.436Z,9.01
2018-01-30T00:20:04.746Z,9.04
2018-01-30T00:20:08.537Z,9
2018-01-30T00:20:12.427Z,9.03
2018-01-30T00:20:16.215Z,9.06
2018-01-30T00:20:20.106Z,8.96
2018-01-30T00:20:24.203Z,9.06
2018-01-30T00:20:28.098Z,9.03
2018-01-30T00:20:32.208Z,9.03
2018-01-30T00:20:36.201Z,9.04
2018-01-30T00:20:39.989Z,9
2018-01-30T00:20:43.778Z,9.04
2018-01-30T00:20:47.672Z,9.01
2018-01-30T00:20:51.776Z,9.04
2018-01-30T00:20:55.665Z,9.04
2018-01-30T00:20:59.352Z,9.04
2018-01-30T00:21:03.363Z,9.01
2018-01-30T00:21:07.252Z,9.04
2018-01-30T00:21:11.146Z,9.04
2018-01-30T00:21:15.043Z,9.08
2018-01-30T00:21:19.048Z,9.08
2018-01-30T00:21:22.940Z,9.04
2018-01-30T00:21:26.940Z,9.04
2018-01-30T00:21:30.838Z,9.1
2018-01-30T00:21:34.727Z,9.03
2018-01-30T00:21:38.728Z,9.08
2018-01-30T00:21:42.729Z,9.04
2018-01-30T00:21:46.828Z,9.08
2018-01-30T00:21:50.726Z,9
2018-01-30T00:21:54.624Z,9.03
2018-01-30T00:21:58.514Z,9.04
2018-01-30T00:22:02.868Z,9.06
2018-01-30T00:22:06.768Z,9.08
2018-01-30T00:22:10.985Z,9.03
2018-01-30T00:22:14.772Z,8.98
2018-01-30T00:22:18.775Z,9.03
2018-01-30T00:22:22.671Z,8.97
2018-01-30T00:22:26.674Z,9.06
2018-01-30T00:22:30.573Z,9.06
2018-01-30T00:22:34.467Z,8.96
2018-01-30T00:22:38.364Z,9.01
2018-01-30T00:22:42.153Z,9.03
2018-01-30T00:22:46.150Z,9.08
2018-01-30T00:22:50.156Z,9.1
2018-01-30T00:22:54.164Z,9.04
2018-01-30T00:22:58.068Z,9.06
2018-01-30T00:23:02.269Z,9
2018-01-30T00:23:06.274Z,9
2018-01-30T00:23:10.168Z,8.98
2018-01-30T00:23:13.955Z,9.1
2018-01-30T00:23:17.961Z,9
2018-01-30T00:23:21.968Z,9.01
2018-01-30T00:23:25.865Z,9.01
2018-01-30T00:23:29.651Z,9
2018-01-30T00:23:33.439Z,9.01
2018-01-30T00:23:37.338Z,9
2018-01-30T00:23:41.023Z,9.03
2018-01-30T00:23:44.704Z,8.96
2018-01-30T00:23:48.807Z,9.03
2018-01-30T00:23:52.598Z,9.06
2018-01-30T00:23:56.489Z,8.94
2018-01-30T00:24:00.389Z,9
2018-01-30T00:24:04.378Z,9
2018-01-30T00:24:08.386Z,9.01
2018-01-30T00:24:12.387Z,9.03
2018-01-30T00:24:16.499Z,9.03
2018-01-30T00:24:20.495Z,9.1
2018-01-30T00:24:24.286Z,8.98
2018-01-30T00:24:28.185Z,9.03
2018-01-30T00:24:32.184Z,9.06
2018-01-30T00:24:35.975Z,8.97
2018-01-30T00:24:39.768Z,9.06
2018-01-30T00:24:43.660Z,9
2018-01-30T00:24:47.552Z,9.06
2018-01-30T00:24:51.553Z,9.03
2018-01-30T00:24:55.454Z,9.03
2018-01-30T00:24:59.457Z,9
2018-01-30T00:25:03.511Z,9.01
2018-01-30T00:25:07.617Z,9
2018-01-30T00:25:11.509Z,8.98
2018-01-30T00:25:15.416Z,8.97
2018-01-30T00:25:19.416Z,9.1
2018-01-30T00:25:23.418Z,9.04
2018-01-30T00:25:27.312Z,8.98
2018-01-30T00:25:31.313Z,9.03
2018-01-30T00:25:35.113Z,9.06
2018-01-30T00:25:38.904Z,9
2018-01-30T00:25:42.795Z,9.03
2018-01-30T00:25:46.681Z,9
2018-01-30T00:25:50.683Z,9.04
2018-01-30T00:25:54.361Z,9.04
2018-01-30T00:25:58.359Z,9.03
2018-01-30T00:26:02.399Z,9.06
2018-01-30T00:26:06.298Z,9
2018-01-30T00:26:10.512Z,8.98
2018-01-30T00:26:14.407Z,8.97
2018-01-30T00:26:18.302Z,9.06
2018-01-30T00:26:21.982Z,9
2018-01-30T00:26:25.774Z,9.04
2018-01-30T00:26:29.981Z,9.1
2018-01-30T00:26:33.777Z,9.06
2018-01-30T00:26:37.695Z,9.03
2018-01-30T00:26:41.488Z,9.03
2018-01-30T00:26:45.488Z,9.03
2018-01-30T00:26:49.284Z,9.03
2018-01-30T00:26:53.295Z,9.08
2018-01-30T00:26:57.199Z,9.01
2018-01-30T00:27:01.119Z,9.13
2018-01-30T00:27:05.223Z,9
2018-01-30T00:27:09.014Z,9.04
2018-01-30T00:27:12.809Z,8.97
2018-01-30T00:27:16.493Z,9.1
2018-01-30T00:27:20.388Z,9.03
2018-01-30T00:27:24.290Z,9.03
2018-01-30T00:27:27.976Z,9.01
2018-01-30T00:27:31.660Z,9.03
2018-01-30T00:27:35.657Z,9.01
2018-01-30T00:27:39.450Z,9
2018-01-30T00:27:43.353Z,9.03
2018-01-30T00:27:47.362Z,9.01
2018-01-30T00:27:51.468Z,9.08
2018-01-30T00:27:55.618Z,9.08
2018-01-30T00:27:59.621Z,9.06
2018-01-30T00:28:03.513Z,8.97
2018-01-30T00:28:07.198Z,9.04
2018-01-30T00:28:11.300Z,9.01
2018-01-30T00:28:15.204Z,9.06
2018-01-30T00:28:19.204Z,8.97
2018-01-30T00:28:23.202Z,9.1
2018-01-30T00:28:27.097Z,9.01
2018-01-30T00:28:31.101Z,9.1
2018-01-30T00:28:34.891Z,9.04
2018-01-30T00:28:38.904Z,9.1
2018-01-30T00:28:42.694Z,9
2018-01-30T00:28:46.587Z,9.03
2018-01-30T00:28:50.696Z,9
2018-01-30T00:28:54.592Z,9.06
2018-01-30T00:28:58.695Z,9.1
2018-01-30T00:29:02.898Z,9.03
2018-01-30T00:29:06.689Z,9.04
2018-01-30T00:29:10.790Z,9.13
2018-01-30T00:29:14.788Z,9.04
2018-01-30T00:29:18.792Z,8.98
2018-01-30T00:29:22.582Z,9
2018-01-30T00:29:26.577Z,9.08
2018-01-30T00:29:30.575Z,9.04
2018-01-30T00:29:34.359Z,9.13
2018-01-30T00:29:38.361Z,9.08
2018-01-30T00:29:42.037Z,9.1
2018-01-30T00:29:46.034Z,9.06
2018-01-30T00:29:50.250Z,9.12
2018-01-30T00:29:54.039Z,9.06
2018-01-30T00:29:57.827Z,9.06
2018-01-30T00:30:01.871Z,9.06
2018-01-30T00:30:05.986Z,9.01
2018-01-30T00:30:10.305Z,9.16
2018-01-30T00:30:14.416Z,9.06
2018-01-30T00:30:18.523Z,9.01
2018-01-30T00:30:22.735Z,9
2018-01-30T00:30:26.737Z,9.1
2018-01-30T00:30:30.743Z,9.1
2018-01-30T00:30:34.749Z,9.17
2018-01-30T00:30:38.433Z,8.96
2018-01-30T00:30:42.329Z,9.16
2018-01-30T00:30:46.020Z,9
2018-01-30T00:30:50.226Z,9.1
2018-01-30T00:30:54.124Z,9
2018-01-30T00:30:58.018Z,8.97
2018-01-30T00:31:01.852Z,9
2018-01-30T00:31:05.754Z,9.13
2018-01-30T00:31:09.761Z,9
2018-01-30T00:31:13.553Z,8.98
2018-01-30T00:31:17.554Z,9.03
2018-01-30T00:31:21.348Z,9.16
2018-01-30T00:31:25.040Z,9.08
2018-01-30T00:31:28.831Z,9.12
2018-01-30T00:31:32.729Z,9.12
2018-01-30T00:31:36.726Z,9.1
2018-01-30T00:31:40.730Z,9.1
2018-01-30T00:31:44.632Z,9.1
2018-01-30T00:31:48.734Z,9
2018-01-30T00:31:52.637Z,9.03
2018-01-30T00:31:56.635Z,9.12
2018-01-30T00:32:00.319Z,9.08
2018-01-30T00:32:04.370Z,9.12
2018-01-30T00:32:08.059Z,9.1
2018-01-30T00:32:12.059Z,9.1
2018-01-30T00:32:15.957Z,9.12
2018-01-30T00:32:19.749Z,9.08
2018-01-30T00:32:23.647Z,9.1
2018-01-30T00:32:27.540Z,9.1
2018-01-30T00:32:31.228Z,9.17
2018-01-30T00:32:35.125Z,9.16
2018-01-30T00:32:39.239Z,9.08
2018-01-30T00:32:43.238Z,9.15
2018-01-30T00:32:47.238Z,9.1
2018-01-30T00:32:51.137Z,9.1
2018-01-30T00:32:55.139Z,9.08
2018-01-30T00:32:59.031Z,9.17
2018-01-30T00:33:03.033Z,9.19
2018-01-30T00:33:06.941Z,9.15
2018-01-30T00:33:11.046Z,9.17
2018-01-30T00:33:14.934Z,9.13
2018-01-30T00:33:18.724Z,9.13
2018-01-30T00:33:22.738Z,9.12
2018-01-30T00:33:26.741Z,9.1
2018-01-30T00:33:30.535Z,9.13
2018-01-30T00:33:34.643Z,9.16
2018-01-30T00:33:38.322Z,9.15
2018-01-30T00:33:42.261Z,9.13
2018-01-30T00:33:46.158Z,9.08
2018-01-30T00:33:50.163Z,9.12
2018-01-30T00:33:54.050Z,9.15
2018-01-30T00:33:58.266Z,9.15
2018-01-30T00:34:02.472Z,9.13
2018-01-30T00:34:06.153Z,9.16
2018-01-30T00:34:10.148Z,9.15
2018-01-30T00:34:14.146Z,9.13
2018-01-30T00:34:17.942Z,9.17
2018-01-30T00:34:21.831Z,9.12
2018-01-30T00:34:25.617Z,9.16
2018-01-30T00:34:29.413Z,9.16
2018-01-30T00:34:33.348Z,9.12
2018-01-30T00:34:37.247Z,9.1
2018-01-30T00:34:41.143Z,9.16
2018-01-30T00:34:44.831Z,9.16
2018-01-30T00:34:48.626Z,9.16
2018-01-30T00:34:52.626Z,9.08
2018-01-30T00:34:56.522Z,9.12
2018-01-30T00:35:00.411Z,9.13
2018-01-30T00:35:04.098Z,9.16
2018-01-30T00:35:07.886Z,9.13
2018-01-30T00:35:11.673Z,9.19
2018-01-30T00:35:15.359Z,9.2
2018-01-30T00:35:19.468Z,9.16
2018-01-30T00:35:23.366Z,9.12
2018-01-30T00:35:27.363Z,9.17
2018-01-30T00:35:31.364Z,9.17
2018-01-30T00:35:35.371Z,9.16
2018-01-30T00:35:39.157Z,9.13
2018-01-30T00:35:42.952Z,9.17
2018-01-30T00:35:46.852Z,9.19
2018-01-30T00:35:50.754Z,9.17
2018-01-30T00:35:54.752Z,9.13
2018-01-30T00:35:58.541Z,9.16
2018-01-30T00:36:02.538Z,9.16
2018-01-30T00:36:06.542Z,9.16
2018-01-30T00:36:10.650Z,9.17
2018-01-30T00:36:14.756Z,9.15
2018-01-30T00:36:18.759Z,9.16
2018-01-30T00:36:22.766Z,9.15
2018-01-30T00:36:26.561Z,9.17
2018-01-30T00:36:30.354Z,9.17
2018-01-30T00:36:34.365Z,9.13
2018-01-30T00:36:38.053Z,9.2
2018-01-30T00:36:41.958Z,9.15
2018-01-30T00:36:46.067Z,9.15
2018-01-30T00:36:49.755Z,9.17
2018-01-30T00:36:53.859Z,9.2
2018-01-30T00:36:57.870Z,9.15
2018-01-30T00:37:01.867Z,9.13
2018-01-30T00:37:05.654Z,9.17
2018-01-30T00:37:09.695Z,9.2
2018-01-30T00:37:13.803Z,9.19
2018-01-30T00:37:17.809Z,9.16
2018-01-30T00:37:21.714Z,9.1
2018-01-30T00:37:25.724Z,9.12
2018-01-30T00:37:29.521Z,9.12
2018-01-30T00:37:33.423Z,9.13
2018-01-30T00:37:37.422Z,9.13
2018-01-30T00:37:41.313Z,9.2
2018-01-30T00:37:45.433Z,9.16
2018-01-30T00:37:49.433Z,9.17
2018-01-30T00:37:53.540Z,9.16
2018-01-30T00:37:57.438Z,9.15
2018-01-30T00:38:01.438Z,9.17
2018-01-30T00:38:05.436Z,9.16
2018-01-30T00:38:09.334Z,9.15
2018-01-30T00:38:13.231Z,9.15
2018-01-30T00:38:17.443Z,9.2
2018-01-30T00:38:21.346Z,9.16
2018-01-30T00:38:25.344Z,9.16
2018-01-30T00:38:29.029Z,9.13
2018-01-30T00:38:32.819Z,9.13
2018-01-30T00:38:36.717Z,9.16
2018-01-30T00:38:40.718Z,9.19
2018-01-30T00:38:44.616Z,9.17
2018-01-30T00:38:48.618Z,9.12
2018-01-30T00:38:52.776Z,9.12
2018-01-30T00:38:56.579Z,9.13
2018-01-30T00:39:00.472Z,9.19
2018-01-30T00:39:04.727Z,9.19
2018-01-30T00:39:08.631Z,9.15
2018-01-30T00:39:12.631Z,9.13
2018-01-30T00:39:16.529Z,9.16
2018-01-30T00:39:20.215Z,9.1
2018-01-30T00:39:24.326Z,9.13
2018-01-30T00:39:28.224Z,9.12
2018-01-30T00:39:32.115Z,9.12
2018-01-30T00:39:36.008Z,9.16
2018-01-30T00:39:40.021Z,9.17
2018-01-30T00:39:43.811Z,9.17
2018-01-30T00:39:47.605Z,9.12
2018-01-30T00:39:51.505Z,9.13
2018-01-30T00:39:55.612Z,9.19
2018-01-30T00:39:59.403Z,9.15
2018-01-30T00:40:03.518Z,9.13
2018-01-30T00:40:07.628Z,9.13
2018-01-30T00:40:11.527Z,9.16
2018-01-30T00:40:15.435Z,9.19
2018-01-30T00:40:19.434Z,9.16
2018-01-30T00:40:23.226Z,9.16
2018-01-30T00:40:27.025Z,9.1
2018-01-30T00:40:31.035Z,9.1
2018-01-30T00:40:35.131Z,9.12
2018-01-30T00:40:39.033Z,9.12
2018-01-30T00:40:42.729Z,9.15
2018-01-30T00:40:46.416Z,9.19
2018-01-30T00:40:50.328Z,9.16
2018-01-30T00:40:54.541Z,9.16
2018-01-30T00:40:58.437Z,9.1
2018-01-30T00:41:02.337Z,9.16
2018-01-30T00:41:06.340Z,9.2
2018-01-30T00:41:10.134Z,9.12
2018-01-30T00:41:14.031Z,9.17
2018-01-30T00:41:18.035Z,9.19
2018-01-30T00:41:22.150Z,9.19
2018-01-30T00:41:26.533Z,9.16
2018-01-30T00:41:30.548Z,9.13
2018-01-30T00:41:34.345Z,9.2
2018-01-30T00:41:38.132Z,9.12
2018-01-30T00:41:42.030Z,9.16
2018-01-30T00:41:45.929Z,9.19
2018-01-30T00:41:49.932Z,9.2
2018-01-30T00:41:53.938Z,9.16
2018-01-30T00:41:57.726Z,9.16
2018-01-30T00:42:01.416Z,9.2
2018-01-30T00:42:05.527Z,9.17
2018-01-30T00:42:09.530Z,9.16
2018-01-30T00:42:13.425Z,9.06
2018-01-30T00:42:17.530Z,9.16
2018-01-30T00:42:21.535Z,9.19
2018-01-30T00:42:25.224Z,9.08
2018-01-30T00:42:29.261Z,9.15
2018-01-30T00:42:33.061Z,9.1
2018-01-30T00:42:36.956Z,9.16
2018-01-30T00:42:40.858Z,9.13
2018-01-30T00:42:44.758Z,9.2
2018-01-30T00:42:49.076Z,9.16
2018-01-30T00:42:53.183Z,9.12
2018-01-30T00:42:57.288Z,9.16
2018-01-30T00:43:01.193Z,9.16
2018-01-30T00:43:05.188Z,9.13
2018-01-30T00:43:09.087Z,9.16
2018-01-30T00:43:12.878Z,9.16
2018-01-30T00:43:16.879Z,9.13
2018-01-30T00:43:21.035Z,9.19
2018-01-30T00:43:25.039Z,9.1
2018-01-30T00:43:28.934Z,9.17
2018-01-30T00:43:32.732Z,9.19
2018-01-30T00:43:36.674Z,9.12
2018-01-30T00:43:40.461Z,9.19
2018-01-30T00:43:44.376Z,9.16
2018-01-30T00:43:48.477Z,9.13
2018-01-30T00:43:52.584Z,9.17
2018-01-30T00:43:56.697Z,9.15
2018-01-30T00:44:00.810Z,9.17
2018-01-30T00:44:04.900Z,9.2
2018-01-30T00:44:08.791Z,9.13
2018-01-30T00:44:12.785Z,9.2
2018-01-30T00:44:16.890Z,9.2
2018-01-30T00:44:21.089Z,9.12
2018-01-30T00:44:25.000Z,9.16
2018-01-30T00:44:28.793Z,9.16
2018-01-30T00:44:32.801Z,9.19
2018-01-30T00:44:36.599Z,9.16
2018-01-30T00:44:40.496Z,9.16
2018-01-30T00:45:16.807Z,9.15
2018-01-30T00:45:20.653Z,9.13
2018-01-30T00:45:24.341Z,9.15
2018-01-30T00:45:28.129Z,9.17
2018-01-30T00:45:32.031Z,9.16
2018-01-30T00:45:35.721Z,9.16
2018-01-30T00:45:39.619Z,9.1
2018-01-30T00:45:43.621Z,9.13
2018-01-30T00:45:47.514Z,9.15
2018-01-30T00:45:51.632Z,9.17
2018-01-30T00:45:55.426Z,9.17
2018-01-30T00:45:59.523Z,9.19
2018-01-30T00:46:03.667Z,9.16
2018-01-30T00:46:07.354Z,9.16
2018-01-30T00:46:11.247Z,9.13
2018-01-30T00:46:15.133Z,9.23
2018-01-30T00:46:18.821Z,9.17
2018-01-30T00:46:22.718Z,9.17
2018-01-30T00:46:26.404Z,9.17
2018-01-30T00:46:30.516Z,9.15
2018-01-30T00:46:34.309Z,9.2
2018-01-30T00:46:38.095Z,9.2
2018-01-30T00:46:42.101Z,9.19
2018-01-30T00:46:45.990Z,9.17
2018-01-30T00:46:49.889Z,9.08
2018-01-30T00:46:53.883Z,9.19
2018-01-30T00:46:57.774Z,9.19
2018-01-30T00:47:01.773Z,9.15
2018-01-30T00:47:05.817Z,9.15
2018-01-30T00:47:09.712Z,9.16
2018-01-30T00:47:13.504Z,9.17
2018-01-30T00:47:17.616Z,9.17
2018-01-30T00:47:21.617Z,9.13
2018-01-30T00:47:25.726Z,9.15
2018-01-30T00:47:29.723Z,9.17
2018-01-30T00:47:33.830Z,9.16
2018-01-30T00:47:37.721Z,9.12
2018-01-30T00:47:41.512Z,9.15
2018-01-30T00:47:45.611Z,9.15
2018-01-30T00:47:49.619Z,9.16
2018-01-30T00:47:53.521Z,9.16
2018-01-30T00:47:57.624Z,9.12
2018-01-30T00:48:01.420Z,9.16
2018-01-30T00:48:05.725Z,9.17
2018-01-30T00:48:09.625Z,9.17
2018-01-30T00:48:13.617Z,9.17
2018-01-30T00:48:17.511Z,9.17
2018-01-30T00:48:21.401Z,9.13
2018-01-30T00:48:25.508Z,9.13
2018-01-30T00:48:29.302Z,9.19
2018-01-30T00:48:33.405Z,9.12
2018-01-30T00:48:37.304Z,9.13
2018-01-30T00:48:41.092Z,9.15
2018-01-30T00:48:44.885Z,9.13
2018-01-30T00:48:48.676Z,9.17
2018-01-30T00:48:52.466Z,9.16
2018-01-30T00:48:56.467Z,9.1
2018-01-30T00:49:00.358Z,9.19
2018-01-30T00:49:04.251Z,9.08
2018-01-30T00:49:08.145Z,9.12
2018-01-30T00:49:12.404Z,9.19
2018-01-30T00:49:16.503Z,9.15
2018-01-30T00:49:20.290Z,9.13
2018-01-30T00:49:24.182Z,9.08
2018-01-30T00:49:28.282Z,9.1
2018-01-30T00:49:32.073Z,9.17
2018-01-30T00:49:35.751Z,9.13
2018-01-30T00:49:39.759Z,9.12
2018-01-30T00:49:43.550Z,9.19
2018-01-30T00:49:47.442Z,9.17
2018-01-30T00:49:51.340Z,9.17
2018-01-30T00:49:55.235Z,9.12
2018-01-30T00:49:59.342Z,9.13
2018-01-30T00:50:03.652Z,9.1
2018-01-30T00:50:07.337Z,9.15
2018-01-30T00:50:11.341Z,9.13
2018-01-30T00:50:15.339Z,9.16
2018-01-30T00:50:19.129Z,9.15
2018-01-30T00:50:23.126Z,9.15
2018-01-30T00:50:27.072Z,9.2
2018-01-30T00:50:30.984Z,9.19
2018-01-30T00:50:35.088Z,9.19
2018-01-30T00:50:38.986Z,9.22
2018-01-30T00:50:42.771Z,9.23
2018-01-30T00:50:46.561Z,9.19
2018-01-30T00:50:50.766Z,9.24
2018-01-30T00:50:54.762Z,9.23
2018-01-30T00:50:58.660Z,9.17
2018-01-30T00:51:02.546Z,9.15
2018-01-30T00:51:06.545Z,9.17
2018-01-30T00:51:10.436Z,9.13
2018-01-30T00:51:14.534Z,9.22
2018-01-30T00:51:18.434Z,9.23
2018-01-30T00:51:22.323Z,9.19
2018-01-30T00:51:26.214Z,9.15
2018-01-30T00:51:30.003Z,9.24
2018-01-30T00:51:34.002Z,9.2
2018-01-30T00:51:38.117Z,9.2
2018-01-30T00:51:41.900Z,9.26
2018-01-30T00:51:45.799Z,9.19
2018-01-30T00:51:49.897Z,9.24
2018-01-30T00:51:53.889Z,9.23
2018-01-30T00:51:57.993Z,9.26
2018-01-30T00:52:02.254Z,9.23
2018-01-30T00:52:06.046Z,9.24
2018-01-30T00:52:10.182Z,9.26
2018-01-30T00:52:13.969Z,9.22
2018-01-30T00:52:17.756Z,9.23
2018-01-30T00:52:21.440Z,9.23
2018-01-30T00:52:25.541Z,9.19
2018-01-30T00:52:29.327Z,9.26
2018-01-30T00:52:33.118Z,9.27
2018-01-30T00:52:36.804Z,9.22
2018-01-30T00:52:40.698Z,9.2
2018-01-30T00:52:44.912Z,9.23
2018-01-30T00:52:48.912Z,9.17
2018-01-30T00:52:52.799Z,9.22
2018-01-30T00:52:56.913Z,9.24
2018-01-30T00:53:00.854Z,9.23
2018-01-30T00:53:04.702Z,9.23
2018-01-30T00:53:08.701Z,9.23
2018-01-30T00:53:12.711Z,9.24
2018-01-30T00:53:16.507Z,9.22